Terminal Aerodrome Forecast
Issued by NWS Kansas City/Pleasant Hill, MO

Home | Current Version | Previous Version | Text Only | Print | Product List | Glossary Off
Versions: 1 2 3 4 5 6 7 8 9 10 11 12 13 14 15

703
FTUS43 KEAX 080520
TAFMCI
TAF
KMCI 080520Z 0806/0906 31018G28KT P6SM VCSH OVC035
      TEMPO 0809/0813 5SM -SHSN OVC025
     FM081800 32025G35KT P6SM OVC040
     FM090100 33015G25KT P6SM SCT045=

USA.gov is the U.S. government's official web portal to all federal, state and local government web resources and services.